Time;durP1;ratioP1;P1;durP2;ratioP2;P2;SDS_P1;SDS_P2;PMS_P1;PMS_P2;Temp;Humidity;BMP_temperature;BMP_pressure;BME280_temperature;BME280_humidity;BME280_pressure;Samples;Min_cycle;Max_cycle;Signal;HPM_P1;HPM_P2
2022/08/31 00:05:24;;;;;;;18.25;9.88;;;;;;;22.06;66.62;101128.22;1765023;80;27782;-62
2022/08/31 00:07:51;;;;;;;14.23;9.50;;;;;;;22.11;66.38;101133.92;1761684;80;26143;-62
2022/08/31 00:10:20;;;;;;;25.90;10.80;;;;;;;22.11;66.20;101133.92;1761396;80;26156;-62
2022/08/31 00:12:48;;;;;;;22.50;11.35;;;;;;;22.04;66.04;101139.91;1765259;80;26302;-62
2022/08/31 00:15:20;;;;;;;22.42;10.88;;;;;;;21.97;66.18;101133.02;1767683;80;25876;-63
2022/08/31 00:17:47;;;;;;;13.60;8.78;;;;;;;21.91;66.42;101131.64;1767072;81;27574;-63
2022/08/31 00:20:17;;;;;;;17.50;10.28;;;;;;;21.86;66.39;101139.92;1766181;80;25656;-63
2022/08/31 00:22:44;;;;;;;24.47;10.20;;;;;;;21.77;66.78;101135.66;1761695;80;25616;-63
2022/08/31 00:25:12;;;;;;;23.47;10.43;;;;;;;21.65;67.94;101130.44;1766097;79;26452;-62
2022/08/31 00:27:39;;;;;;;18.55;11.15;;;;;;;21.54;68.20;101140.00;1767828;80;26052;-62
2022/08/31 00:30:11;;;;;;;21.40;11.38;;;;;;;21.38;69.10;101131.59;1772189;80;28378;-62
2022/08/31 00:32:39;;;;;;;19.85;10.28;;;;;;;21.27;69.18;101132.97;1767100;81;25490;-62
2022/08/31 00:35:08;;;;;;;19.70;10.72;;;;;;;21.19;70.29;101136.72;1766059;80;25786;-63
2022/08/31 00:37:34;;;;;;;19.05;10.70;;;;;;;21.11;71.03;101136.33;1766862;79;25781;-63
2022/08/31 00:40:03;;;;;;;19.92;10.75;;;;;;;21.02;71.01;101141.61;1768029;80;25853;-62
2022/08/31 00:42:31;;;;;;;20.05;10.23;;;;;;;21.02;70.64;101143.51;1772689;80;27540;-62
2022/08/31 00:44:57;;;;;;;13.65;9.93;;;;;;;21.01;71.07;101144.55;1731832;81;26050;-63
2022/08/31 00:47:24;;;;;;;19.70;10.00;;;;;;;21.01;70.67;101147.28;1766079;80;25697;-62
2022/08/31 00:49:53;;;;;;;18.70;9.70;;;;;;;21.00;71.00;101143.69;1766401;79;25939;-63
2022/08/31 00:52:33;;;;;;;20.77;10.75;;;;;;;20.99;70.86;101147.45;1773327;80;25957;-62
2022/08/31 00:55:05;;;;;;;19.75;11.80;;;;;;;20.94;71.31;101151.31;1771950;80;27569;-62
2022/08/31 00:57:37;;;;;;;21.20;13.90;;;;;;;20.92;71.33;101156.13;1766803;80;25703;-63
2022/08/31 01:00:10;;;;;;;20.43;10.70;;;;;;;20.93;70.77;101152.35;1766588;80;25824;-62
2022/08/31 01:02:37;;;;;;;18.87;11.03;;;;;;;20.91;71.12;101159.90;1756665;79;26548;-62
2022/08/31 01:05:06;;;;;;;22.20;10.63;;;;;;;20.89;71.41;101160.61;1766794;79;25829;-62
2022/08/31 01:07:35;;;;;;;16.23;9.50;;;;;;;20.87;71.18;101158.61;1736976;81;28494;-62
2022/08/31 01:10:03;;;;;;;16.30;10.00;;;;;;;20.87;71.31;101158.61;1767197;80;25831;-63
2022/08/31 01:12:30;;;;;;;17.52;10.20;;;;;;;20.85;71.01;101152.48;1769895;80;25875;-62
2022/08/31 01:15:00;;;;;;;16.27;9.83;;;;;;;20.84;71.18;101158.99;1770278;79;25686;-62
2022/08/31 01:17:27;;;;;;;23.40;10.32;;;;;;;20.86;71.09;101156.92;1766196;80;25733;-62
2022/08/31 01:20:33;;;;;;;15.80;9.68;;;;;;;20.84;70.85;101153.02;1754159;80;27473;-62
2022/08/31 01:23:21;;;;;;;18.07;10.03;;;;;;;20.84;70.80;101150.29;1761885;80;25706;-63
2022/08/31 01:25:49;;;;;;;19.80;9.95;;;;;;;20.89;70.49;101153.27;1756215;80;25791;-63
2022/08/31 01:28:17;;;;;;;17.73;9.80;;;;;;;20.97;70.23;101151.44;1762573;80;25769;-63
2022/08/31 01:31:02;;;;;;;17.25;9.40;;;;;;;20.97;70.13;101158.27;1767339;81;26172;-63
2022/08/31 01:33:34;;;;;;;23.98;9.68;;;;;;;20.92;70.00;101161.09;1766097;80;27496;-63
2022/08/31 01:36:03;;;;;;;17.05;9.18;;;;;;;20.91;69.79;101169.47;1770852;80;25759;-63
2022/08/31 01:38:32;;;;;;;18.75;9.68;;;;;;;20.92;69.94;101169.30;1765554;80;25816;-64
2022/08/31 01:41:01;;;;;;;14.23;7.35;;;;;;;20.86;69.69;101168.69;1765364;80;26308;-63
2022/08/31 01:43:34;;;;;;;19.92;9.48;;;;;;;20.85;70.22;101164.79;1762154;80;25765;-63
2022/08/31 01:46:08;;;;;;;17.37;8.80;;;;;;;20.77;69.95;101169.86;1757238;80;27521;-63
2022/08/31 01:48:36;;;;;;;10.63;7.47;;;;;;;20.76;69.87;101170.39;1763478;80;25813;-63
2022/08/31 01:51:04;;;;;;;17.32;7.92;;;;;;;20.77;69.93;101168.48;1766524;80;26757;-63
2022/08/31 01:53:32;;;;;;;15.72;8.38;;;;;;;20.75;69.63;101173.33;1766008;80;25727;-62
2022/08/31 01:56:00;;;;;;;13.88;8.13;;;;;;;20.70;69.89;101173.02;1763189;80;25780;-63
2022/08/31 01:58:27;;;;;;;17.87;8.55;;;;;;;20.66;70.04;101168.98;1766354;80;27483;-63
2022/08/31 02:01:11;;;;;;;16.48;8.35;;;;;;;20.59;70.16;101171.10;1771044;80;25509;-62
2022/08/31 02:03:39;;;;;;;17.67;8.23;;;;;;;20.57;70.31;101173.71;1773432;80;25740;-62
2022/08/31 02:06:11;;;;;;;22.05;9.43;;;;;;;20.54;70.38;101170.84;1761650;80;26346;-62
2022/08/31 02:08:39;;;;;;;20.90;8.93;;;;;;;20.56;70.25;101164.67;1767208;80;25825;-63
2022/08/31 02:11:08;;;;;;;15.72;7.92;;;;;;;20.63;70.06;101169.69;1767436;81;28159;-62
2022/08/31 02:13:35;;;;;;;15.38;8.08;;;;;;;20.70;69.90;101169.77;1766229;80;25766;-62
2022/08/31 02:16:04;;;;;;;15.53;8.38;;;;;;;20.75;69.71;101174.16;1767179;80;25779;-64
2022/08/31 02:18:34;;;;;;;19.50;7.87;;;;;;;20.82;69.79;101167.41;1745982;80;25826;-63
2022/08/31 02:21:02;;;;;;;12.63;8.05;;;;;;;20.82;69.53;101170.64;1775429;80;26025;-63
2022/08/31 02:23:29;;;;;;;16.62;8.50;;;;;;;20.73;69.96;101169.90;1773295;80;26910;-62
2022/08/31 02:25:57;;;;;;;12.95;8.05;;;;;;;20.63;70.26;101171.06;1761658;81;25942;-62
2022/08/31 02:28:24;;;;;;;20.80;9.08;;;;;;;20.59;70.60;101175.73;1764117;80;25872;-62
2022/08/31 02:30:52;;;;;;;14.03;8.65;;;;;;;20.54;70.70;101176.31;1769802;80;25519;-63
2022/08/31 02:33:20;;;;;;;16.55;8.90;;;;;;;20.52;70.59;101171.55;1765853;80;25997;-63
2022/08/31 02:35:47;;;;;;;12.25;7.95;;;;;;;20.53;70.92;101177.88;1758882;80;27565;-62
2022/08/31 02:38:14;;;;;;;14.15;8.93;;;;;;;20.50;70.91;101170.89;1759024;80;25760;-63
2022/08/31 02:40:42;;;;;;;16.55;8.38;;;;;;;20.47;71.10;101166.66;1768640;80;25474;-63
2022/08/31 02:43:11;;;;;;;16.20;8.63;;;;;;;20.52;71.07;101163.36;1764731;80;25784;-63
2022/08/31 02:45:38;;;;;;;14.15;7.67;;;;;;;20.62;70.83;101169.87;1748150;80;25723;-64
2022/08/31 02:48:09;;;;;;;14.78;8.43;;;;;;;20.67;70.65;101166.55;1753223;80;27538;-63
2022/08/31 02:50:46;;;;;;;13.70;8.15;;;;;;;20.69;70.53;101167.22;1756871;80;25781;-64
2022/08/31 02:53:15;;;;;;;20.97;7.97;;;;;;;20.69;70.60;101172.17;1759175;81;25703;-63
2022/08/31 02:55:43;;;;;;;16.35;8.13;;;;;;;20.67;70.79;101178.35;1754223;80;25509;-63
2022/08/31 02:58:12;;;;;;;16.95;8.58;;;;;;;20.63;70.68;101179.26;1759068;80;25707;-64
2022/08/31 03:00:45;;;;;;;17.82;8.38;;;;;;;20.62;70.69;101176.70;1757115;80;28495;-64
2022/08/31 03:03:13;;;;;;;19.62;8.35;;;;;;;20.57;71.04;101180.05;1756256;80;25781;-63
2022/08/31 03:05:40;;;;;;;16.93;9.15;;;;;;;20.53;71.24;101180.62;1755584;80;25719;-64
2022/08/31 03:08:08;;;;;;;12.47;7.92;;;;;;;20.51;71.33;101179.95;1759166;81;25696;-63
2022/08/31 03:10:36;;;;;;;13.85;8.28;;;;;;;20.47;71.79;101190.42;1765154;80;25768;-63
2022/08/31 03:13:03;;;;;;;14.45;9.20;;;;;;;20.40;72.28;101184.88;1775674;80;27449;-63
2022/08/31 03:15:30;;;;;;;16.60;10.50;;;;;;;20.34;72.37;101180.19;1766597;80;25934;-63
2022/08/31 03:17:57;;;;;;;17.60;9.28;;;;;;;20.34;72.34;101178.81;1761132;80;25569;-64
2022/08/31 03:20:26;;;;;;;21.17;9.48;;;;;;;20.41;72.48;101184.34;1772572;80;26269;-63
2022/08/31 03:22:54;;;;;;;18.20;8.15;;;;;;;20.41;72.38;101184.34;1758757;80;25454;-63
2022/08/31 03:25:22;;;;;;;16.97;8.33;;;;;;;20.45;72.14;101176.94;1760520;80;26978;-63
2022/08/31 03:27:50;;;;;;;14.70;8.25;;;;;;;20.49;72.48;101186.45;1758717;81;25766;-63
2022/08/31 03:30:20;;;;;;;18.32;8.48;;;;;;;20.57;72.11;101187.38;1757722;80;25743;-63
2022/08/31 03:32:50;;;;;;;18.10;8.60;;;;;;;20.68;71.94;101183.28;1762512;80;25793;-63
2022/08/31 03:35:17;;;;;;;20.65;8.58;;;;;;;20.77;71.75;101183.52;1765026;79;25877;-62
2022/08/31 03:37:45;;;;;;;22.22;7.90;;;;;;;20.89;71.65;101187.95;1775958;80;27648;-62
2022/08/31 03:40:13;;;;;;;16.48;8.28;;;;;;;20.95;71.30;101178.45;1768754;80;25740;-63
2022/08/31 03:42:41;;;;;;;14.28;8.45;;;;;;;21.03;71.07;101183.47;1759967;80;25751;-63
2022/08/31 03:45:10;;;;;;;19.87;7.67;;;;;;;21.11;70.91;101184.20;1759377;80;26134;-62
2022/08/31 03:47:38;;;;;;;20.27;9.08;;;;;;;21.15;70.52;101179.70;1742215;80;25810;-63
2022/08/31 03:50:09;;;;;;;23.77;7.67;;;;;;;21.17;70.33;101182.56;1762334;80;28263;-63
2022/08/31 03:52:54;;;;;;;16.30;7.67;;;;;;;21.23;70.20;101183.67;1758885;80;25720;-63
2022/08/31 03:55:22;;;;;;;18.30;7.92;;;;;;;21.30;70.01;101183.70;1759830;80;25445;-63
2022/08/31 03:57:50;;;;;;;19.48;7.95;;;;;;;21.32;69.68;101182.48;1759827;81;25771;-62
2022/08/31 04:00:18;;;;;;;14.23;7.25;;;;;;;21.37;69.56;101181.89;1759368;80;25743;-65
2022/08/31 04:02:47;;;;;;;16.23;7.35;;;;;;;21.42;69.35;101178.03;1745233;82;27408;-63
2022/08/31 04:05:36;;;;;;;14.53;7.10;;;;;;;21.46;69.14;101184.81;1753139;80;25802;-63
2022/08/31 04:08:13;;;;;;;11.78;7.30;;;;;;;21.45;68.91;101181.75;1759313;80;25462;-64
2022/08/31 04:10:49;;;;;;;18.17;7.47;;;;;;;21.46;68.94;101190.80;1759930;80;25743;-63
2022/08/31 04:13:36;;;;;;;14.23;8.03;;;;;;;21.46;68.74;101180.70;1759976;81;25738;-63
2022/08/31 04:16:23;;;;;;;21.68;8.18;;;;;;;21.48;68.48;101187.34;1761734;80;28285;-63
2022/08/31 04:19:04;;;;;;;13.93;7.85;;;;;;;21.51;68.27;101185.59;1761776;80;26028;-62
2022/08/31 04:21:33;;;;;;;14.05;7.80;;;;;;;21.49;67.94;101191.77;1766006;80;25798;-64
2022/08/31 04:24:02;;;;;;;17.37;7.90;;;;;;;21.45;67.90;101198.17;1764318;80;26372;-63
2022/08/31 04:26:34;;;;;;;20.50;8.33;;;;;;;21.46;67.81;101197.64;1760466;80;26211;-63
2022/08/31 04:29:06;;;;;;;18.57;8.33;;;;;;;21.42;67.68;101196.69;1749086;80;27572;-62
2022/08/31 04:31:35;;;;;;;16.52;7.72;;;;;;;21.39;67.62;101192.96;1762384;81;25892;-61
2022/08/31 04:34:02;;;;;;;16.77;8.53;;;;;;;21.39;67.68;101194.33;1761860;80;25896;-61
2022/08/31 04:36:30;;;;;;;16.55;6.65;;;;;;;21.41;67.68;101195.48;1763986;80;25695;-62
2022/08/31 04:39:03;;;;;;;19.15;8.70;;;;;;;21.40;67.68;101189.69;1772171;79;25779;-62
2022/08/31 04:41:38;;;;;;;17.90;7.42;;;;;;;21.38;67.68;101195.91;1769571;80;28129;-62
2022/08/31 04:44:03;;;;;;;16.57;7.87;;;;;;;21.38;67.90;101198.64;1732562;81;26387;-62
2022/08/31 04:46:33;;;;;;;14.95;7.35;;;;;;;21.39;68.27;101197.57;1764161;80;25681;-62
2022/08/31 04:49:00;;;;;;;14.07;7.75;;;;;;;21.36;68.16;101200.72;1733748;81;25841;-62
2022/08/31 04:51:34;;;;;;;13.05;7.35;;;;;;;21.37;68.32;101205.16;1763323;80;25838;-62
2022/08/31 04:54:01;;;;;;;15.90;8.00;;;;;;;21.38;68.45;101198.64;1762204;80;28295;-62
2022/08/31 04:56:33;;;;;;;15.10;7.97;;;;;;;21.41;68.46;101196.86;1763205;80;25957;-63
2022/08/31 04:59:05;;;;;;;17.02;7.47;;;;;;;21.47;68.55;101197.96;1767064;80;25718;-62
2022/08/31 05:01:39;;;;;;;19.67;8.18;;;;;;;21.53;68.62;101202.63;1762187;80;25718;-62
2022/08/31 05:04:15;;;;;;;13.72;7.17;;;;;;;21.55;68.40;101204.16;1750356;80;25825;-63
2022/08/31 05:06:45;;;;;;;11.28;6.97;;;;;;;21.61;68.50;101203.88;1763151;80;27457;-63
2022/08/31 05:09:18;;;;;;;13.38;6.90;;;;;;;21.70;68.54;101203.23;1764448;80;25685;-63
2022/08/31 05:11:48;;;;;;;19.05;9.63;;;;;;;21.71;68.05;101211.77;1767302;79;25805;-62
2022/08/31 05:14:16;;;;;;;21.10;8.55;;;;;;;21.65;68.17;101213.94;1772003;80;25785;-63
2022/08/31 05:16:45;;;;;;;22.37;8.00;;;;;;;21.66;68.39;101215.61;1744744;82;25743;-62
2022/08/31 05:19:12;;;;;;;18.75;8.50;;;;;;;21.70;68.59;101215.02;1760392;80;27507;-62
2022/08/31 05:21:42;;;;;;;20.23;9.13;;;;;;;21.78;68.58;101217.30;1773882;79;25806;-63
2022/08/31 05:24:21;;;;;;;16.15;7.62;;;;;;;21.80;68.44;101211.94;1737459;80;25731;-65
2022/08/31 05:26:52;;;;;;;13.38;7.90;;;;;;;21.83;68.42;101211.52;1752664;80;25821;-63
2022/08/31 05:29:23;;;;;;;19.60;8.68;;;;;;;21.90;68.39;101211.56;1737975;78;25570;-63
2022/08/31 05:31:52;;;;;;;18.45;7.72;;;;;;;21.95;68.44;101211.83;1774858;78;27531;-63
2022/08/31 05:34:21;;;;;;;19.32;8.88;;;;;;;21.95;68.17;101208.23;1770169;79;25821;-62
2022/08/31 05:36:54;;;;;;;15.95;8.65;;;;;;;21.95;68.43;101211.83;1794961;79;25500;-62
2022/08/31 05:39:22;;;;;;;20.02;8.70;;;;;;;21.95;68.25;101211.83;1798018;79;25748;-63
2022/08/31 05:41:50;;;;;;;15.25;8.60;;;;;;;21.98;68.30;101220.16;1805200;78;25970;-63
2022/08/31 05:44:19;;;;;;;21.68;9.38;;;;;;;21.97;68.15;101211.62;1797946;78;27525;-63
2022/08/31 05:46:48;;;;;;;29.37;9.85;;;;;;;21.99;68.28;101215.84;1792595;79;25528;-62
2022/08/31 05:49:16;;;;;;;18.87;10.50;;;;;;;21.95;68.44;101216.44;1793162;79;25425;-63
2022/08/31 05:51:43;;;;;;;35.55;18.17;;;;;;;21.85;68.36;101215.45;1794077;79;25765;-65
2022/08/31 05:54:10;;;;;;;45.78;30.57;;;;;;;21.77;69.02;101220.55;1788509;79;25779;-62
2022/08/31 05:56:40;;;;;;;27.87;14.23;;;;;;;21.75;69.55;101214.95;1757554;81;27353;-63
2022/08/31 05:59:07;;;;;;;33.30;11.63;;;;;;;21.70;69.88;101212.27;1765953;80;25729;-65
2022/08/31 06:01:38;;;;;;;21.15;11.08;;;;;;;21.67;70.27;101214.06;1765941;80;25782;-64
2022/08/31 06:04:07;;;;;;;17.50;10.18;;;;;;;21.67;70.47;101218.67;1762017;80;25683;-62
2022/08/31 06:06:35;;;;;;;23.85;11.48;;;;;;;21.68;70.84;101218.49;1767991;80;25738;-62
2022/08/31 06:09:05;;;;;;;17.12;11.18;;;;;;;21.72;71.48;101216.20;1767231;80;28188;-62
2022/08/31 06:11:33;;;;;;;22.37;12.45;;;;;;;21.72;71.57;101220.31;1768102;80;25728;-62
2022/08/31 06:14:04;;;;;;;25.37;12.18;;;;;;;21.72;71.80;101221.67;1764731;80;25734;-62
2022/08/31 06:16:32;;;;;;;23.55;12.23;;;;;;;21.68;71.92;101222.60;1765256;80;25837;-63
2022/08/31 06:19:02;;;;;;;23.52;12.15;;;;;;;21.65;72.28;101219.42;1766166;79;26759;-63
2022/08/31 06:21:34;;;;;;;21.95;12.73;;;;;;;21.61;73.73;101228.52;1768204;80;27649;-63
2022/08/31 06:24:03;;;;;;;21.40;13.18;;;;;;;21.50;74.00;101227.15;1759583;80;25837;-62
2022/08/31 06:26:33;;;;;;;23.92;13.20;;;;;;;21.46;73.59;101231.34;1756516;80;26658;-63
2022/08/31 06:29:05;;;;;;;24.52;13.22;;;;;;;21.45;73.63;101234.25;1778766;80;26449;-63
2022/08/31 06:31:46;;;;;;;;;;;;;;;21.45;74.13;101233.75;1770208;80;25828;-63
2022/08/31 06:34:09;;;;;;;29.35;13.70;;;;;;;21.43;73.26;101235.30;1762994;80;27673;-62
2022/08/31 06:36:40;;;;;;;27.50;14.20;;;;;;;21.46;73.34;101240.06;1740202;80;25976;-63
2022/08/31 06:39:26;;;;;;;22.50;12.75;;;;;;;21.47;73.23;101241.22;1769417;80;25794;-63
2022/08/31 06:42:13;;;;;;;22.15;12.53;;;;;;;21.53;73.62;101234.98;1764806;80;26321;-63
2022/08/31 06:44:52;;;;;;;25.75;13.72;;;;;;;21.60;73.80;101236.44;1710347;82;25769;-62
2022/08/31 06:47:20;;;;;;;25.23;13.88;;;;;;;21.72;73.84;101243.58;1761109;81;27532;-63
2022/08/31 06:49:48;;;;;;;29.55;12.28;;;;;;;21.83;73.55;101236.70;1765041;80;25722;-62
2022/08/31 06:52:16;;;;;;;20.48;12.10;;;;;;;21.91;73.47;101237.91;1762257;80;25648;-62
2022/08/31 06:54:45;;;;;;;24.50;12.93;;;;;;;22.01;73.17;101239.78;1766291;80;25642;-62
2022/08/31 06:57:33;;;;;;;26.00;13.50;;;;;;;22.13;73.13;101233.20;1766653;81;25775;-63
2022/08/31 07:00:07;;;;;;;23.85;13.45;;;;;;;22.24;72.56;101237.80;1713380;81;27544;-63
2022/08/31 07:02:50;;;;;;;29.42;13.83;;;;;;;22.31;72.27;101231.82;1766809;80;25833;-62
2022/08/31 07:05:18;;;;;;;25.20;13.78;;;;;;;22.40;72.26;101238.03;1768138;80;25694;-63
2022/08/31 07:07:45;;;;;;;24.60;14.53;;;;;;;22.40;72.09;101236.12;1766728;81;25743;-63
2022/08/31 07:10:13;;;;;;;23.73;13.20;;;;;;;22.42;71.66;101237.27;1762814;80;25674;-64
2022/08/31 07:12:40;;;;;;;29.98;14.33;;;;;;;22.45;71.64;101232.26;1744612;82;27533;-64
2022/08/31 07:15:08;;;;;;;22.17;13.53;;;;;;;22.50;71.25;101239.33;1765793;80;25798;-63
2022/08/31 07:17:35;;;;;;;21.00;13.55;;;;;;;22.51;70.78;101239.66;1736625;81;26144;-64
2022/08/31 07:20:06;;;;;;;22.85;14.25;;;;;;;22.54;70.76;101248.53;1769636;80;25778;-64
2022/08/31 07:22:33;;;;;;;28.20;14.75;;;;;;;22.57;70.72;101243.98;1736314;80;25724;-62
2022/08/31 07:25:01;;;;;;;20.62;13.60;;;;;;;22.61;70.63;101243.91;1762074;79;27401;-63
2022/08/31 07:27:29;;;;;;;24.32;14.73;;;;;;;22.57;70.17;101242.11;1767117;80;25936;-64
2022/08/31 07:29:58;;;;;;;20.77;13.08;;;;;;;22.54;70.74;101238.94;1765014;79;25762;-63
2022/08/31 07:32:27;;;;;;;18.00;12.98;;;;;;;22.50;70.59;101243.98;1743409;79;26153;-64
2022/08/31 07:34:55;;;;;;;20.75;11.97;;;;;;;22.46;70.51;101239.94;1751341;80;25779;-63
2022/08/31 07:43:00;;;;;;;23.07;12.43;;;;;;;22.59;71.19;101241.89;1781450;80;25751;-62
2022/08/31 07:45:29;;;;;;;20.82;13.10;;;;;;;22.52;70.41;101241.86;1761259;79;25484;-63
2022/08/31 07:47:58;;;;;;;24.32;12.43;;;;;;;22.51;70.39;101247.88;1756360;81;25876;-63
2022/08/31 07:50:30;;;;;;;19.40;11.50;;;;;;;22.58;70.42;101244.31;1756032;81;28963;-63
2022/08/31 07:53:15;;;;;;;19.25;10.40;;;;;;;22.54;70.14;101248.53;1756235;81;25922;-63
2022/08/31 07:55:46;;;;;;;21.62;10.55;;;;;;;22.54;69.93;101249.36;1755525;81;25983;-63
2022/08/31 07:58:17;;;;;;;22.67;11.00;;;;;;;22.57;69.94;101253.08;1753709;80;26369;-63
2022/08/31 08:00:48;;;;;;;20.32;10.70;;;;;;;22.61;70.14;101259.83;1778636;80;25792;-63
2022/08/31 08:03:15;;;;;;;26.05;11.30;;;;;;;22.65;69.91;101256.14;1779231;80;28280;-63
2022/08/31 08:05:54;;;;;;;15.13;9.28;;;;;;;22.73;69.98;101261.45;1772274;80;25956;-64
2022/08/31 08:08:35;;;;;;;16.70;10.45;;;;;;;22.82;69.49;101256.64;1780276;80;26414;-63
2022/08/31 08:11:05;;;;;;;17.60;10.20;;;;;;;22.85;68.98;101262.23;1779617;80;25650;-63
2022/08/31 08:13:34;;;;;;;19.05;10.30;;;;;;;22.93;68.69;101260.67;1786329;80;25802;-63
2022/08/31 08:16:18;;;;;;;17.30;10.95;;;;;;;22.97;68.29;101257.31;1787217;80;27484;-63
2022/08/31 08:18:50;;;;;;;21.52;11.18;;;;;;;23.04;68.10;101257.34;1762452;80;25857;-63
2022/08/31 08:21:19;;;;;;;17.15;10.85;;;;;;;23.12;67.92;101256.31;1766314;79;25797;-63
2022/08/31 08:23:46;;;;;;;19.00;10.93;;;;;;;23.20;67.44;101256.66;1764291;80;25666;-64
2022/08/31 08:26:31;;;;;;;22.40;10.53;;;;;;;23.26;67.26;101257.21;1783729;80;26593;-64
2022/08/31 08:29:04;;;;;;;20.17;10.65;;;;;;;23.42;67.05;101251.82;1779849;80;29586;-63
2022/08/31 08:31:33;;;;;;;17.15;9.85;;;;;;;23.53;66.56;101253.95;1759859;80;25777;-63
2022/08/31 08:34:00;;;;;;;15.18;9.58;;;;;;;23.64;65.39;101237.89;1785580;80;26157;-63
2022/08/31 08:36:35;;;;;;;15.40;9.03;;;;;;;23.74;65.15;101239.15;1781464;80;25773;-63
2022/08/31 08:39:08;;;;;;;19.90;8.90;;;;;;;23.82;64.81;101241.35;1785349;80;25734;-63
2022/08/31 08:41:40;;;;;;;18.48;8.35;;;;;;;24.00;64.84;101242.94;1780848;80;27523;-63
2022/08/31 08:44:11;;;;;;;13.22;8.63;;;;;;;24.13;63.78;101240.69;1779289;80;26191;-63
2022/08/31 08:46:59;;;;;;;14.85;8.58;;;;;;;24.19;63.54;101236.24;1778998;80;25629;-63
2022/08/31 08:49:42;;;;;;;21.02;8.55;;;;;;;24.23;62.22;101235.59;1778057;80;25652;-63
2022/08/31 08:52:29;;;;;;;18.70;8.38;;;;;;;24.19;61.61;101235.73;1779302;80;25726;-63
2022/08/31 08:55:04;;;;;;;14.55;7.75;;;;;;;24.19;61.91;101240.36;1779553;80;27609;-64
2022/08/31 08:57:40;;;;;;;17.02;9.43;;;;;;;24.22;61.77;101238.03;1778923;80;26138;-63
2022/08/31 09:00:23;;;;;;;16.62;7.33;;;;;;;24.25;61.55;101241.41;1779054;80;25830;-64
2022/08/31 09:03:19;;;;;;;12.13;7.30;;;;;;;24.31;61.46;101244.14;1779461;80;25726;-64
2022/08/31 09:06:22;;;;;;;17.00;7.30;;;;;;;24.32;61.34;101241.72;1736383;80;26070;-64
2022/08/31 09:09:07;;;;;;;16.02;8.10;;;;;;;24.37;60.84;101243.27;1778443;80;27616;-63
2022/08/31 09:11:51;;;;;;;14.07;8.25;;;;;;;24.46;60.59;101238.39;1772155;80;25746;-64
2022/08/31 09:15:05;;;;;;;21.48;7.95;;;;;;;24.51;60.29;101230.86;1779483;80;25813;-64
2022/08/31 09:18:04;;;;;;;14.80;7.87;;;;;;;24.56;60.36;101231.03;1781888;80;26029;-64
2022/08/31 09:20:32;;;;;;;13.85;7.22;;;;;;;24.71;60.07;101228.04;1780623;80;25962;-65
2022/08/31 09:23:02;;;;;;;12.68;7.15;;;;;;;24.89;59.63;101227.29;1778499;80;27473;-65
2022/08/31 09:25:44;;;;;;;13.93;7.10;;;;;;;25.05;58.80;101226.48;1780504;80;26705;-66
2022/08/31 09:28:18;;;;;;;12.25;5.85;;;;;;;25.18;58.67;101221.41;1772400;80;25809;-64
2022/08/31 09:30:53;;;;;;;11.35;5.83;;;;;;;25.45;58.07;101217.93;1756263;80;25785;-64
2022/08/31 09:33:28;;;;;;;9.83;5.75;;;;;;;25.71;57.42;101220.13;1767507;81;26004;-64
2022/08/31 09:36:24;;;;;;;13.58;5.62;;;;;;;25.89;56.15;101219.34;1768118;78;27503;-64
2022/08/31 09:38:52;;;;;;;9.28;4.85;;;;;;;26.07;55.93;101219.87;1775346;80;25478;-63
2022/08/31 09:41:35;;;;;;;12.15;4.97;;;;;;;26.42;54.84;101216.52;1765337;81;25731;-64
2022/08/31 09:44:22;;;;;;;6.10;3.95;;;;;;;26.74;53.67;101216.33;1765366;81;25834;-64
2022/08/31 09:46:53;;;;;;;11.10;3.98;;;;;;;26.88;50.54;101217.02;1766905;80;26001;-64
2022/08/31 09:49:24;;;;;;;13.90;4.80;;;;;;;26.95;47.27;101215.00;1775002;80;28130;-65
2022/08/31 09:51:51;;;;;;;9.03;4.37;;;;;;;26.84;48.78;101213.89;1751053;80;25655;-63
2022/08/31 09:57:10;;;;;;;10.43;4.12;;;;;;;26.97;48.03;101216.13;1744997;82;25840;-63
2022/08/31 09:59:50;;;;;;;9.05;2.98;;;;;;;27.00;47.96;101212.36;1753229;80;25774;-63
2022/08/31 10:02:28;;;;;;;14.55;4.00;;;;;;;27.07;48.84;101201.77;1762713;80;28519;-64
2022/08/31 10:05:03;;;;;;;16.20;3.80;;;;;;;27.13;47.40;101197.50;1764650;79;25841;-64
2022/08/31 10:07:44;;;;;;;7.70;3.60;;;;;;;27.15;47.67;101205.57;1761914;80;26602;-63
2022/08/31 10:10:22;;;;;;;12.35;3.70;;;;;;;27.16;47.84;101205.32;1686725;82;26385;-63
2022/08/31 10:12:54;;;;;;;6.83;3.37;;;;;;;27.31;48.21;101208.16;1668941;82;25753;-64
2022/08/31 10:15:52;;;;;;;15.03;3.30;;;;;;;27.43;45.82;101204.09;1743595;82;28442;-63
2022/08/31 10:18:42;;;;;;;5.72;3.55;;;;;;;27.38;45.33;101200.63;1744953;82;25487;-63
2022/08/31 10:21:14;;;;;;;5.40;3.20;;;;;;;27.44;45.02;101196.93;1743727;80;25879;-65
2022/08/31 10:23:53;;;;;;;6.45;3.60;;;;;;;27.51;44.01;101196.82;1765994;80;26019;-64
2022/08/31 10:26:32;;;;;;;14.13;3.47;;;;;;;27.34;44.12;101196.09;1774527;80;26207;-63
2022/08/31 10:28:58;;;;;;;14.50;3.52;;;;;;;27.27;44.65;101193.98;1764836;80;27647;-65
2022/08/31 10:31:43;;;;;;;15.83;3.90;;;;;;;27.41;44.98;101190.45;1735078;81;26507;-63
2022/08/31 10:37:30;;;;;;;15.25;3.70;;;;;;;27.52;44.52;101192.13;1765818;81;25817;-64
2022/08/31 10:40:05;;;;;;;10.00;3.22;;;;;;;27.58;44.46;101192.02;1772561;80;25936;-64
2022/08/31 10:42:37;;;;;;;6.85;3.40;;;;;;;27.49;44.14;101197.04;1763009;80;28524;-64
2022/08/31 10:45:17;;;;;;;7.87;3.23;;;;;;;27.44;43.71;101201.08;1778908;80;26568;-63
2022/08/31 10:47:47;;;;;;;7.78;3.60;;;;;;;27.27;44.37;101203.65;1770504;80;25807;-64
2022/08/31 10:50:21;;;;;;;13.13;2.85;;;;;;;27.22;44.15;101202.67;1778609;80;26735;-63
2022/08/31 10:52:59;;;;;;;6.20;2.98;;;;;;;26.98;44.89;101209.02;1778026;80;25693;-63
2022/08/31 10:56:07;;;;;;;8.73;3.40;;;;;;;26.82;44.08;101215.17;1777045;80;27641;-64
2022/08/31 10:58:46;;;;;;;6.85;2.92;;;;;;;26.57;45.09;101213.36;1727467;80;25820;-63
2022/08/31 11:01:44;;;;;;;6.33;3.20;;;;;;;26.35;45.30;101215.77;1778531;80;25766;-63
2022/08/31 11:04:39;;;;;;;4.90;2.72;;;;;;;26.08;46.51;101211.42;1732170;80;25801;-64
2022/08/31 11:07:33;;;;;;;5.12;2.98;;;;;;;25.99;47.08;101214.14;1778300;80;25750;-64
2022/08/31 11:10:26;;;;;;;8.55;2.80;;;;;;;26.02;47.57;101206.77;1778668;80;27597;-64
2022/08/31 11:13:00;;;;;;;8.28;3.42;;;;;;;26.10;47.23;101211.19;1778752;80;33540;-64
2022/08/31 11:15:57;;;;;;;8.28;3.02;;;;;;;26.11;47.66;101201.84;1778540;80;25541;-64
2022/08/31 11:18:34;;;;;;;9.98;3.20;;;;;;;26.12;47.18;101199.41;1778498;80;25825;-63
2022/08/31 11:21:41;;;;;;;4.70;2.87;;;;;;;26.21;47.78;101201.30;1778424;80;26150;-63
2022/08/31 11:24:47;;;;;;;5.75;2.45;;;;;;;26.31;47.69;101194.70;1773315;80;27478;-63
2022/08/31 11:27:32;;;;;;;5.78;3.17;;;;;;;26.46;46.77;101192.07;1765776;79;25949;-63
2022/08/31 11:30:11;;;;;;;7.28;2.83;;;;;;;26.34;46.13;101180.47;1796509;79;33069;-63
2022/08/31 11:32:47;;;;;;;6.80;2.60;;;;;;;26.16;45.96;101179.93;1796807;79;25833;-63
2022/08/31 11:35:14;;;;;;;4.62;2.60;;;;;;;26.00;46.52;101181.34;1797337;79;25784;-63
2022/08/31 11:37:54;;;;;;;6.67;3.05;;;;;;;25.97;46.78;101176.31;1793860;79;27686;-63
2022/08/31 11:40:42;;;;;;;10.85;3.60;;;;;;;25.94;47.25;101172.11;1760874;80;25687;-63
2022/08/31 11:43:32;;;;;;;9.03;3.27;;;;;;;25.89;46.95;101176.07;1750463;81;25728;-63
2022/08/31 11:46:25;;;;;;;7.30;2.47;;;;;;;25.84;46.19;101173.69;1750865;81;26980;-63
2022/08/31 11:48:57;;;;;;;13.65;2.95;;;;;;;25.81;46.61;101174.99;1750651;81;25700;-63
2022/08/31 11:51:44;;;;;;;11.70;3.40;;;;;;;25.83;46.53;101166.48;1763737;80;27521;-64
2022/08/31 11:54:25;;;;;;;14.00;2.70;;;;;;;25.85;46.77;101166.59;1763638;80;25771;-63
2022/08/31 11:56:55;;;;;;;11.20;2.70;;;;;;;25.90;46.58;101174.17;1776432;79;25684;-66
2022/08/31 11:59:36;;;;;;;9.95;2.67;;;;;;;26.01;46.84;101172.56;1758410;80;26539;-64
2022/08/31 12:02:24;;;;;;;12.50;2.60;;;;;;;26.07;45.42;101164.73;1762998;81;25260;-64